createdAt,value
2023-05-05T00:02:23.634Z,4.03
2023-05-05T00:04:50.114Z,3.50
2023-05-05T00:07:16.628Z,3.90
2023-05-05T00:09:43.133Z,4.10
2023-05-05T00:12:09.638Z,3.67
2023-05-05T00:14:36.103Z,4.10
2023-05-05T00:17:02.601Z,3.97
2023-05-05T00:19:29.077Z,3.20
2023-05-05T00:21:55.594Z,3.70
2023-05-05T00:24:22.056Z,3.50
2023-05-05T00:26:48.489Z,3.60
2023-05-05T00:29:15.003Z,4.10
2023-05-05T00:31:41.489Z,3.30
2023-05-05T00:34:08.031Z,3.80
2023-05-05T00:36:34.449Z,3.90
2023-05-05T00:39:01.103Z,4.30
2023-05-05T00:41:27.645Z,4.00
2023-05-05T00:43:54.122Z,3.70
2023-05-05T00:46:28.036Z,3.80
2023-05-05T00:48:54.920Z,3.77
2023-05-05T00:51:22.676Z,4.03
2023-05-05T00:53:49.798Z,4.20
2023-05-05T00:56:19.384Z,3.87
2023-05-05T00:58:46.060Z,3.70
2023-05-05T01:01:12.857Z,3.90
2023-05-05T01:03:41.325Z,3.90
2023-05-05T01:06:32.884Z,3.53
2023-05-05T01:09:19.532Z,4.00
2023-05-05T01:12:02.458Z,3.90
2023-05-05T01:14:39.739Z,5.07
2023-05-05T01:17:17.783Z,3.80
2023-05-05T01:20:16.948Z,4.40
2023-05-05T01:22:47.074Z,3.57
2023-05-05T01:25:51.113Z,4.13
2023-05-05T01:28:36.428Z,3.80
2023-05-05T01:31:33.297Z,4.17
2023-05-05T01:34:03.727Z,3.97
2023-05-05T01:36:36.210Z,3.77
2023-05-05T01:39:04.483Z,4.50
2023-05-05T01:41:38.198Z,4.63
2023-05-05T01:44:06.267Z,4.60
2023-05-05T01:46:35.460Z,4.70
2023-05-05T01:49:02.712Z,3.70
2023-05-05T01:51:30.355Z,4.70
2023-05-05T01:53:59.967Z,4.77
2023-05-05T01:56:27.570Z,4.20
2023-05-05T01:58:55.603Z,4.67
2023-05-05T02:01:25.281Z,4.53
2023-05-05T02:03:54.311Z,4.43
2023-05-05T02:06:22.766Z,4.60
2023-05-05T02:08:50.919Z,4.70
2023-05-05T02:11:17.662Z,4.40
2023-05-05T02:13:44.818Z,4.60
2023-05-05T02:16:12.907Z,4.80
2023-05-05T02:18:42.325Z,4.73
2023-05-05T02:21:09.161Z,4.60
2023-05-05T02:23:36.335Z,4.90
2023-05-05T02:26:12.101Z,4.50
2023-05-05T02:29:03.063Z,4.77
2023-05-05T02:31:31.435Z,4.63
2023-05-05T02:33:59.832Z,4.57
2023-05-05T02:36:29.574Z,4.33
2023-05-05T02:39:01.236Z,4.80
2023-05-05T02:41:31.428Z,4.80
2023-05-05T02:44:00.257Z,4.70
2023-05-05T02:46:27.974Z,4.90
2023-05-05T02:48:54.810Z,4.50
2023-05-05T02:51:21.230Z,4.73
2023-05-05T02:53:47.926Z,4.50
2023-05-05T02:56:32.374Z,4.50
2023-05-05T02:59:20.856Z,4.50
2023-05-05T03:01:57.440Z,4.40
2023-05-05T03:04:31.806Z,5.10
2023-05-05T03:07:04.094Z,4.50
2023-05-05T03:09:39.793Z,4.83
2023-05-05T03:12:10.009Z,5.07
2023-05-05T03:14:42.776Z,4.53
2023-05-05T03:17:11.579Z,5.07
2023-05-05T03:19:41.981Z,5.10
2023-05-05T03:22:08.917Z,4.80
2023-05-05T03:24:35.404Z,5.53
2023-05-05T03:27:03.048Z,4.47
2023-05-05T03:29:30.143Z,4.83
2023-05-05T03:31:56.688Z,5.03
2023-05-05T03:34:23.219Z,4.73
2023-05-05T03:36:49.680Z,5.07
2023-05-05T03:39:16.401Z,5.17
2023-05-05T03:41:42.856Z,4.77
2023-05-05T03:44:09.330Z,4.80
2023-05-05T03:46:35.991Z,5.37
2023-05-05T03:49:02.496Z,5.47
2023-05-05T03:51:28.937Z,5.23
2023-05-05T03:53:55.509Z,5.53
2023-05-05T03:56:21.998Z,5.00
2023-05-05T03:58:48.496Z,5.10
2023-05-05T04:01:14.918Z,5.40
2023-05-05T04:03:41.524Z,5.60
2023-05-05T04:06:07.987Z,5.20
2023-05-05T04:08:34.612Z,4.73
2023-05-05T04:11:04.028Z,5.43
2023-05-05T04:13:30.493Z,5.30
2023-05-05T04:15:57.071Z,4.80
2023-05-05T04:18:23.523Z,5.40
2023-05-05T04:20:49.958Z,5.87
2023-05-05T04:23:16.379Z,5.83
2023-05-05T04:25:42.902Z,5.87
2023-05-05T04:28:09.342Z,5.10
2023-05-05T04:30:35.782Z,6.27
2023-05-05T04:33:02.250Z,5.43
2023-05-05T04:35:28.715Z,5.67
2023-05-05T04:37:55.555Z,5.80
2023-05-05T04:40:22.085Z,4.87
2023-05-05T04:42:48.503Z,5.43
2023-05-05T04:45:15.174Z,5.47
2023-05-05T04:47:41.790Z,5.97
2023-05-05T04:50:09.114Z,6.17
2023-05-05T04:52:35.813Z,5.40
2023-05-05T04:55:02.418Z,5.87
2023-05-05T04:57:30.121Z,5.70
2023-05-05T04:59:56.609Z,6.00
2023-05-05T05:02:23.090Z,5.73
2023-05-05T05:04:49.540Z,5.57
2023-05-05T05:07:16.054Z,5.87
2023-05-05T05:09:42.537Z,6.20
2023-05-05T05:12:09.765Z,5.63
2023-05-05T05:14:38.046Z,6.77
2023-05-05T05:17:06.091Z,5.10
2023-05-05T05:19:32.790Z,6.07
2023-05-05T05:21:59.197Z,5.97
2023-05-05T05:24:25.690Z,5.67
2023-05-05T05:26:52.145Z,6.07
2023-05-05T05:29:20.287Z,5.70
2023-05-05T05:31:46.735Z,5.60
2023-05-05T05:34:13.177Z,5.40
2023-05-05T05:36:39.693Z,6.17
2023-05-05T05:39:06.360Z,6.03
2023-05-05T05:41:32.793Z,6.10
2023-05-05T05:43:59.233Z,6.73
2023-05-05T05:46:25.760Z,6.30
2023-05-05T05:48:53.023Z,6.67
2023-05-05T05:51:19.550Z,6.27
2023-05-05T05:53:46.081Z,7.00
2023-05-05T05:56:12.537Z,7.47
2023-05-05T05:58:40.510Z,7.50
2023-05-05T06:01:07.009Z,6.10
2023-05-05T06:03:33.652Z,6.57
2023-05-05T06:06:00.222Z,7.13
2023-05-05T06:08:26.865Z,6.30
2023-05-05T06:10:53.325Z,7.60
2023-05-05T06:13:19.845Z,7.23
2023-05-05T06:15:46.373Z,7.40
2023-05-05T06:18:13.025Z,7.40
2023-05-05T06:20:39.967Z,8.13
2023-05-05T06:23:06.815Z,8.97
2023-05-05T06:25:33.377Z,9.40
2023-05-05T06:28:00.067Z,9.00
2023-05-05T06:30:26.793Z,9.00
2023-05-05T06:32:54.333Z,9.00
2023-05-05T06:35:22.219Z,9.80
2023-05-05T06:37:48.708Z,12.37
2023-05-05T06:40:15.208Z,12.33
2023-05-05T06:42:41.728Z,13.47
2023-05-05T06:45:08.867Z,14.13
2023-05-05T06:47:36.000Z,14.40
2023-05-05T06:50:02.611Z,13.30
2023-05-05T06:52:29.034Z,14.20
2023-05-05T06:54:55.624Z,14.17
2023-05-05T06:57:22.139Z,13.83
2023-05-05T06:59:48.651Z,14.87
2023-05-05T07:02:15.169Z,15.70
2023-05-05T07:04:41.695Z,14.00
2023-05-05T07:07:08.209Z,13.93
2023-05-05T07:09:34.682Z,13.90
2023-05-05T07:12:01.936Z,13.60
2023-05-05T07:14:28.411Z,14.90
2023-05-05T07:16:54.905Z,13.03
2023-05-05T07:19:21.407Z,13.47
2023-05-05T07:21:47.829Z,12.47
2023-05-05T07:24:14.286Z,12.30
2023-05-05T07:26:40.812Z,12.50
2023-05-05T07:29:07.254Z,9.53
2023-05-05T07:31:33.735Z,9.13
2023-05-05T07:34:00.204Z,8.17
2023-05-05T07:36:27.899Z,9.23
2023-05-05T07:38:54.762Z,8.27
2023-05-05T07:41:21.296Z,8.67
2023-05-05T07:43:47.738Z,8.43
2023-05-05T07:46:14.804Z,8.90
2023-05-05T07:48:41.966Z,7.97
2023-05-05T07:51:09.745Z,8.83
2023-05-05T07:53:36.974Z,7.17
2023-05-05T07:56:03.797Z,8.00
2023-05-05T07:58:30.344Z,8.63
2023-05-05T08:00:56.867Z,8.17
2023-05-05T08:03:24.869Z,7.07
2023-05-05T08:05:54.885Z,7.90
2023-05-05T08:08:24.815Z,7.40
2023-05-05T08:10:52.899Z,6.40
2023-05-05T08:13:19.465Z,7.43
2023-05-05T08:15:45.965Z,7.00
2023-05-05T08:18:12.454Z,9.13
2023-05-05T08:20:38.982Z,7.43
2023-05-05T08:23:05.532Z,8.40
2023-05-05T08:25:32.015Z,8.50
2023-05-05T08:27:58.503Z,9.33
2023-05-05T08:30:25.030Z,9.03
2023-05-05T08:32:51.520Z,9.20
2023-05-05T08:35:18.211Z,9.27
2023-05-05T08:37:44.860Z,9.23
2023-05-05T08:40:14.091Z,9.40
2023-05-05T08:42:41.784Z,9.90
2023-05-05T08:45:09.905Z,10.00
2023-05-05T08:47:38.044Z,8.53
2023-05-05T08:50:07.800Z,9.00
2023-05-05T08:52:48.610Z,8.40
2023-05-05T08:55:28.382Z,10.20
2023-05-05T08:57:57.503Z,10.80
2023-05-05T09:00:26.483Z,9.60
2023-05-05T09:02:55.932Z,10.40
2023-05-05T09:05:22.766Z,11.20
2023-05-05T09:07:50.314Z,11.10
2023-05-05T09:10:17.454Z,10.30
2023-05-05T09:12:44.498Z,9.80
2023-05-05T09:15:13.906Z,10.00
2023-05-05T09:17:41.330Z,9.77
2023-05-05T09:20:10.486Z,9.20
2023-05-05T09:22:41.468Z,8.70
2023-05-05T09:25:16.789Z,8.30
2023-05-05T09:27:48.268Z,8.83
2023-05-05T09:30:24.526Z,8.40
2023-05-05T09:32:53.578Z,7.90
2023-05-05T09:35:21.526Z,7.73
2023-05-05T09:37:48.147Z,8.30
2023-05-05T09:40:16.845Z,8.30
2023-05-05T09:42:44.569Z,9.43
2023-05-05T09:45:17.211Z,8.40
2023-05-05T09:47:45.753Z,8.00
2023-05-05T09:50:15.852Z,7.83
2023-05-05T09:52:43.332Z,7.27
2023-05-05T09:55:18.884Z,8.47
2023-05-05T09:57:47.257Z,7.00
2023-05-05T10:00:14.648Z,7.63
2023-05-05T10:02:41.877Z,7.63
2023-05-05T10:05:09.743Z,7.70
2023-05-05T10:07:37.037Z,8.00
2023-05-05T10:10:05.815Z,7.80
2023-05-05T10:12:35.556Z,8.60
2023-05-05T10:15:03.468Z,6.80
2023-05-05T10:17:36.929Z,7.50
2023-05-05T10:20:04.451Z,7.50
2023-05-05T10:22:34.964Z,7.90
2023-05-05T10:25:03.148Z,7.07
2023-05-05T10:27:34.653Z,7.60
2023-05-05T10:30:05.086Z,6.80
2023-05-05T10:32:56.944Z,6.00
2023-05-05T10:35:22.900Z,6.23
2023-05-05T10:37:50.102Z,6.07
2023-05-05T10:40:17.844Z,5.40
2023-05-05T10:42:44.796Z,5.97
2023-05-05T10:45:11.366Z,5.60
2023-05-05T10:47:40.181Z,4.87
2023-05-05T10:50:17.917Z,4.50
2023-05-05T10:53:15.296Z,4.10
2023-05-05T10:55:49.853Z,4.73
2023-05-05T10:58:51.277Z,4.60
2023-05-05T11:01:30.532Z,4.13
2023-05-05T11:04:16.944Z,4.20
2023-05-05T11:07:09.266Z,3.73
2023-05-05T11:09:54.947Z,3.10
2023-05-05T11:12:21.598Z,2.50
2023-05-05T11:14:48.094Z,2.77
2023-05-05T11:17:49.049Z,3.03
2023-05-05T11:20:15.923Z,3.53
2023-05-05T11:23:05.635Z,3.00
2023-05-05T11:25:35.357Z,2.80
2023-05-05T11:28:08.944Z,2.83
2023-05-05T11:30:36.737Z,1.63
2023-05-05T11:33:32.419Z,2.10
2023-05-05T11:36:10.234Z,2.30
2023-05-05T11:39:07.756Z,1.80
2023-05-05T11:42:01.618Z,2.57
2023-05-05T11:44:32.587Z,2.60
2023-05-05T11:47:01.893Z,2.80
2023-05-05T11:49:39.416Z,3.10
2023-05-05T11:52:11.120Z,3.17
2023-05-05T11:54:47.499Z,3.10
2023-05-05T11:57:15.306Z,2.70
2023-05-05T11:59:51.725Z,2.90
2023-05-05T12:02:19.070Z,2.57
2023-05-05T12:04:46.884Z,3.07
2023-05-05T12:07:21.393Z,4.20
2023-05-05T12:09:49.197Z,1.90
2023-05-05T12:12:16.717Z,2.20
2023-05-05T12:14:53.067Z,2.63
2023-05-05T12:17:20.626Z,2.83
2023-05-05T12:19:54.688Z,2.93
2023-05-05T12:22:23.484Z,3.10
2023-05-05T12:25:01.102Z,2.87
2023-05-05T12:27:28.582Z,3.33
2023-05-05T12:30:11.834Z,3.90
2023-05-05T12:32:38.399Z,3.43
2023-05-05T12:35:06.694Z,3.40
2023-05-05T12:37:33.358Z,3.60
2023-05-05T12:39:59.810Z,3.80
2023-05-05T12:42:26.400Z,3.33
2023-05-05T12:44:52.894Z,3.20
2023-05-05T12:47:33.069Z,3.77
2023-05-05T12:50:00.765Z,3.23
2023-05-05T12:52:44.246Z,3.30
2023-05-05T12:55:11.350Z,3.30
2023-05-05T12:57:38.597Z,3.20
2023-05-05T13:00:16.683Z,3.43
2023-05-05T13:02:43.237Z,2.80
2023-05-05T13:05:10.159Z,3.23
2023-05-05T13:07:49.962Z,3.20
2023-05-05T13:10:16.553Z,3.33
2023-05-05T13:12:43.083Z,3.63
2023-05-05T13:15:10.264Z,3.13
2023-05-05T13:17:36.886Z,3.20
2023-05-05T13:20:03.753Z,3.97
2023-05-05T13:22:30.671Z,3.90
2023-05-05T13:24:57.226Z,4.13
2023-05-05T13:27:23.730Z,5.20
2023-05-05T13:29:50.194Z,4.77
2023-05-05T13:32:16.785Z,4.10
2023-05-05T13:34:44.121Z,4.60
2023-05-05T13:37:10.728Z,4.67
2023-05-05T13:39:37.165Z,4.83
2023-05-05T13:42:03.809Z,4.70
2023-05-05T13:44:30.342Z,5.30
2023-05-05T13:46:56.941Z,5.50
2023-05-05T13:49:23.845Z,5.03
2023-05-05T13:51:50.752Z,5.00
2023-05-05T13:54:17.353Z,5.83
2023-05-05T13:56:43.931Z,5.37
2023-05-05T13:59:10.472Z,5.57
2023-05-05T14:01:37.199Z,4.80
2023-05-05T14:04:05.695Z,5.63
2023-05-05T14:06:36.484Z,5.10
2023-05-05T14:09:05.707Z,6.80
2023-05-05T14:11:32.310Z,6.00
2023-05-05T14:13:58.768Z,5.23
2023-05-05T14:16:25.264Z,5.97
2023-05-05T14:18:52.358Z,5.00
2023-05-05T14:21:18.777Z,6.10
2023-05-05T14:23:45.302Z,5.60
2023-05-05T14:26:11.798Z,5.40
2023-05-05T14:28:38.313Z,5.50
2023-05-05T14:31:05.043Z,5.37
2023-05-05T14:33:31.544Z,5.20
2023-05-05T14:35:57.955Z,4.77
2023-05-05T14:38:24.497Z,4.80
2023-05-05T14:40:51.051Z,4.60
2023-05-05T14:43:17.483Z,5.03
2023-05-05T14:45:44.402Z,5.20
2023-05-05T14:48:11.120Z,4.27
2023-05-05T14:50:38.526Z,4.13
2023-05-05T14:53:05.035Z,4.97
2023-05-05T14:55:31.560Z,4.80
2023-05-05T14:57:57.987Z,4.37
2023-05-05T15:00:26.513Z,5.60
2023-05-05T15:02:53.069Z,7.00
2023-05-05T15:05:19.602Z,4.50
2023-05-05T15:07:46.062Z,3.90
2023-05-05T15:10:12.700Z,5.43
2023-05-05T15:12:39.280Z,5.90
2023-05-05T15:15:08.659Z,5.00
2023-05-05T15:17:37.408Z,6.63
2023-05-05T15:20:06.182Z,7.33
2023-05-05T15:22:32.674Z,6.33
2023-05-05T15:24:59.691Z,6.80
2023-05-05T15:27:26.307Z,5.50
2023-05-05T15:29:52.931Z,5.87
2023-05-05T15:32:19.354Z,6.20
2023-05-05T15:34:46.808Z,5.23
2023-05-05T15:37:14.120Z,5.20
2023-05-05T15:39:40.632Z,5.13
2023-05-05T15:42:07.412Z,4.60
2023-05-05T15:44:33.831Z,4.40
2023-05-05T15:47:00.372Z,4.00
2023-05-05T15:49:26.908Z,3.87
2023-05-05T15:51:53.380Z,4.23
2023-05-05T15:54:19.856Z,4.33
2023-05-05T15:56:46.291Z,4.10
2023-05-05T15:59:12.736Z,4.13
2023-05-05T16:01:39.258Z,4.00
2023-05-05T16:04:05.813Z,3.73
2023-05-05T16:06:32.282Z,3.97
2023-05-05T16:08:59.920Z,4.07
2023-05-05T16:11:26.985Z,4.80
2023-05-05T16:13:53.863Z,3.10
2023-05-05T16:16:20.934Z,2.60
2023-05-05T16:18:47.932Z,3.30
2023-05-05T16:21:14.595Z,3.10
2023-05-05T16:23:41.354Z,2.90
2023-05-05T16:26:07.916Z,3.10
2023-05-05T16:28:34.737Z,2.80
2023-05-05T16:31:02.182Z,2.97
2023-05-05T16:33:29.316Z,2.83
2023-05-05T16:35:56.270Z,3.57
2023-05-05T16:38:22.825Z,4.00
2023-05-05T16:40:49.628Z,4.03
2023-05-05T16:43:16.213Z,25.37
2023-05-05T16:45:43.402Z,14.10
2023-05-05T16:48:10.008Z,9.47
2023-05-05T16:50:36.467Z,9.60
2023-05-05T16:53:02.914Z,9.17
2023-05-05T16:55:29.707Z,9.60
2023-05-05T16:57:56.145Z,8.07
2023-05-05T17:00:22.585Z,7.80
2023-05-05T17:02:49.107Z,6.93
2023-05-05T17:05:17.338Z,6.80
2023-05-05T17:07:43.925Z,5.70
2023-05-05T17:10:10.761Z,4.63
2023-05-05T17:12:37.341Z,4.43
2023-05-05T17:15:04.223Z,4.33
2023-05-05T17:17:30.830Z,3.73
2023-05-05T17:19:57.394Z,6.93
2023-05-05T17:22:23.955Z,5.67
2023-05-05T17:24:50.907Z,3.90
2023-05-05T17:27:17.497Z,3.80
2023-05-05T17:29:44.065Z,3.30
2023-05-05T17:32:10.661Z,3.20
2023-05-05T17:34:37.314Z,3.30
2023-05-05T17:37:03.826Z,3.33
2023-05-05T17:39:30.951Z,3.40
2023-05-05T17:41:57.382Z,2.97
2023-05-05T17:44:23.871Z,2.97
2023-05-05T17:46:50.562Z,3.87
2023-05-05T17:49:17.025Z,3.20
2023-05-05T17:51:43.570Z,3.40
2023-05-05T17:54:09.987Z,4.33
2023-05-05T17:56:37.963Z,3.83
2023-05-05T17:59:04.396Z,3.03
2023-05-05T18:01:30.877Z,3.17
2023-05-05T18:03:57.411Z,3.00
2023-05-05T18:08:52.387Z,5.00
2023-05-05T18:11:21.151Z,4.47
2023-05-05T18:13:47.647Z,4.07
2023-05-05T18:16:14.234Z,3.87
2023-05-05T18:18:41.302Z,4.27
2023-05-05T18:21:11.889Z,4.73
2023-05-05T18:23:39.369Z,4.83
2023-05-05T18:26:06.475Z,5.70
2023-05-05T18:28:33.105Z,4.90
2023-05-05T18:30:59.588Z,4.50
2023-05-05T18:33:26.560Z,5.20
2023-05-05T18:35:52.996Z,5.87
2023-05-05T18:38:19.662Z,4.40
2023-05-05T18:40:46.177Z,4.13
2023-05-05T18:43:12.714Z,8.20
2023-05-05T18:45:39.244Z,9.07
2023-05-05T18:48:05.906Z,5.77
2023-05-05T18:50:33.220Z,5.00
2023-05-05T18:52:59.632Z,4.67
2023-05-05T18:55:26.213Z,4.17
2023-05-05T18:57:52.985Z,4.20
2023-05-05T19:00:20.698Z,4.83
2023-05-05T19:02:47.207Z,4.83
2023-05-05T19:05:13.729Z,4.50
2023-05-05T19:07:40.254Z,5.40
2023-05-05T19:10:07.326Z,5.87
2023-05-05T19:12:33.804Z,6.13
2023-05-05T19:15:00.385Z,5.50
2023-05-05T19:17:26.912Z,6.60
2023-05-05T19:19:53.439Z,6.67
2023-05-05T19:22:21.770Z,6.87
2023-05-05T19:24:48.205Z,7.07
2023-05-05T19:27:16.588Z,7.47
2023-05-05T19:29:43.671Z,6.93
2023-05-05T19:32:10.252Z,6.47
2023-05-05T19:34:36.975Z,6.50
2023-05-05T19:37:03.573Z,7.70
2023-05-05T19:39:30.196Z,8.90
2023-05-05T19:41:56.674Z,7.37
2023-05-05T19:44:23.747Z,7.90
2023-05-05T19:46:50.249Z,7.97
2023-05-05T19:49:16.698Z,7.50
2023-05-05T19:51:43.831Z,7.90
2023-05-05T19:54:10.355Z,7.97
2023-05-05T19:56:36.885Z,9.30
2023-05-05T19:59:06.053Z,7.60
2023-05-05T20:01:35.675Z,9.13
2023-05-05T20:04:03.686Z,8.93
2023-05-05T20:06:30.382Z,9.57
2023-05-05T20:08:56.829Z,9.30
2023-05-05T20:11:26.504Z,11.00
2023-05-05T20:13:53.237Z,10.50
2023-05-05T20:16:20.159Z,11.20
2023-05-05T20:18:46.864Z,9.37
2023-05-05T20:21:14.256Z,9.73
2023-05-05T20:23:42.772Z,10.33
2023-05-05T20:26:09.539Z,7.87
2023-05-05T20:28:35.987Z,8.60
2023-05-05T20:31:02.569Z,8.50
2023-05-05T20:33:29.227Z,8.03
2023-05-05T20:35:55.827Z,8.47
2023-05-05T20:38:22.281Z,8.60
2023-05-05T20:40:49.705Z,7.40
2023-05-05T20:43:16.322Z,8.73
2023-05-05T20:45:42.890Z,8.67
2023-05-05T20:48:11.168Z,8.43
2023-05-05T20:50:38.716Z,8.33
2023-05-05T20:53:07.874Z,8.47
2023-05-05T20:55:34.437Z,8.50
2023-05-05T20:58:01.062Z,9.40
2023-05-05T21:00:27.672Z,9.10
2023-05-05T21:02:54.381Z,9.30
2023-05-05T21:05:20.973Z,11.17
2023-05-05T21:07:47.487Z,10.50
2023-05-05T21:10:14.030Z,8.33
2023-05-05T21:12:41.619Z,9.90
2023-05-05T21:15:09.101Z,7.93
2023-05-05T21:17:36.053Z,8.70
2023-05-05T21:20:02.626Z,7.67
2023-05-05T21:22:29.116Z,7.90
2023-05-05T21:25:09.158Z,7.13
2023-05-05T21:27:35.586Z,6.80
2023-05-05T21:30:02.009Z,7.27
2023-05-05T21:32:28.542Z,6.30
2023-05-05T21:34:55.138Z,6.90
2023-05-05T21:37:21.581Z,7.97
2023-05-05T21:39:49.503Z,7.47
2023-05-05T21:42:16.139Z,6.33
2023-05-05T21:44:42.576Z,6.73
2023-05-05T21:47:09.913Z,7.63
2023-05-05T21:49:36.434Z,7.63
2023-05-05T21:52:02.963Z,7.90
2023-05-05T21:54:30.031Z,7.40
2023-05-05T21:56:56.579Z,7.40
2023-05-05T21:59:23.024Z,8.67
2023-05-05T22:01:49.839Z,7.83
2023-05-05T22:04:16.301Z,8.03
2023-05-05T22:06:42.727Z,8.77
2023-05-05T22:09:09.237Z,8.90
2023-05-05T22:11:35.905Z,9.10
2023-05-05T22:14:02.563Z,8.93
2023-05-05T22:16:29.139Z,8.80
2023-05-05T22:18:55.581Z,7.90
2023-05-05T22:21:22.096Z,8.23
2023-05-05T22:23:48.569Z,8.00
2023-05-05T22:26:15.039Z,8.90
2023-05-05T22:28:41.564Z,8.37
2023-05-05T22:31:08.100Z,8.90
2023-05-05T22:33:36.032Z,8.60
2023-05-05T22:36:02.520Z,7.50
2023-05-05T22:38:29.017Z,7.20
2023-05-05T22:40:55.524Z,8.10
2023-05-05T22:43:21.958Z,8.40
2023-05-05T22:45:48.458Z,8.37
2023-05-05T22:48:15.032Z,7.80
2023-05-05T22:50:41.490Z,8.50
2023-05-05T22:53:08.015Z,10.67
2023-05-05T22:55:34.470Z,13.00
2023-05-05T22:58:00.934Z,13.80
2023-05-05T23:00:28.241Z,13.50
2023-05-05T23:02:55.077Z,12.37
2023-05-05T23:05:22.023Z,12.80
2023-05-05T23:07:48.538Z,12.20
2023-05-05T23:10:15.047Z,11.93
2023-05-05T23:12:41.587Z,12.27
2023-05-05T23:15:08.795Z,13.27
2023-05-05T23:17:35.551Z,12.70
2023-05-05T23:20:02.604Z,12.20
2023-05-05T23:22:29.037Z,12.90
2023-05-05T23:24:55.574Z,13.83
2023-05-05T23:27:23.018Z,13.80
2023-05-05T23:29:49.485Z,14.63
2023-05-05T23:32:16.017Z,12.80
2023-05-05T23:34:42.490Z,14.50
2023-05-05T23:37:08.898Z,14.50
2023-05-05T23:39:35.484Z,16.00
2023-05-05T23:42:01.984Z,17.17
2023-05-05T23:44:28.524Z,15.73
2023-05-05T23:46:55.033Z,14.73
2023-05-05T23:49:21.661Z,16.77
2023-05-05T23:51:48.096Z,17.70
2023-05-05T23:54:14.634Z,16.33
2023-05-05T23:56:41.123Z,16.53
2023-05-05T23:59:07.644Z,17.57
